Time;durP1;ratioP1;P1;durP2;ratioP2;P2;SDS_P1;SDS_P2;PMS_P1;PMS_P2;Temp;Humidity;BMP_temperature;BMP_pressure;BME280_temperature;BME280_humidity;BME280_pressure;Samples;Min_cycle;Max_cycle;Signal;HPM_P1;HPM_P2
2021/11/29 00:00:57;;;;;;;1999.90;388.70;;;3.60;99.90;;;;;;5137065;27;20434;-75
2021/11/29 00:03:27;;;;;;;1999.90;353.77;;;3.60;99.90;;;;;;5155390;27;20460;-75
2021/11/29 00:05:56;;;;;;;1999.90;542.43;;;3.60;99.90;;;;;;5137465;27;20488;-75
2021/11/29 00:08:25;;;;;;;1999.90;320.87;;;3.60;99.90;;;;;;5136831;27;20468;-75
2021/11/29 00:10:55;;;;;;;1999.90;366.40;;;3.60;99.90;;;;;;5137039;27;20439;-75
2021/11/29 00:13:23;;;;;;;1999.90;722.50;;;3.60;99.90;;;;;;5136907;27;20473;-75
2021/11/29 00:15:51;;;;;;;1969.10;258.07;;;3.60;99.90;;;;;;5137658;27;20433;-75
2021/11/29 00:18:19;;;;;;;1999.90;556.80;;;3.60;99.90;;;;;;5137197;27;20872;-75
2021/11/29 00:20:48;;;;;;;1999.90;521.37;;;3.60;99.90;;;;;;5136711;27;20468;-75
2021/11/29 00:23:16;;;;;;;1999.90;352.03;;;3.60;99.90;;;;;;5136915;27;20483;-75
2021/11/29 00:25:45;;;;;;;1999.90;344.73;;;3.60;99.90;;;;;;5155203;27;20468;-75
2021/11/29 00:28:16;;;;;;;1999.90;307.57;;;3.60;99.90;;;;;;5136789;27;20491;-75
2021/11/29 00:30:44;;;;;;;1999.90;764.30;;;3.60;99.90;;;;;;5155384;27;20935;-75
2021/11/29 00:33:13;;;;;;;1999.90;374.27;;;3.60;99.90;;;;;;5139271;27;20472;-75
2021/11/29 00:35:42;;;;;;;1999.90;309.70;;;3.60;99.90;;;;;;5144927;27;20441;-75
2021/11/29 00:38:12;;;;;;;1999.90;234.50;;;3.70;99.90;;;;;;5146851;27;20441;-75
2021/11/29 00:40:42;;;;;;;1999.90;798.60;;;3.70;99.90;;;;;;5176370;27;20515;-75
2021/11/29 00:43:11;;;;;;;1999.90;244.83;;;3.60;99.90;;;;;;5157218;27;20876;-75
2021/11/29 00:45:40;;;;;;;1999.90;999.90;;;3.70;99.90;;;;;;5165008;27;20433;-75
2021/11/29 00:48:08;;;;;;;1999.90;327.17;;;3.70;99.90;;;;;;5146168;27;20465;-75
2021/11/29 00:50:38;;;;;;;1999.90;334.77;;;3.70;99.90;;;;;;5164027;27;20433;-75
2021/11/29 00:53:08;;;;;;;1999.90;301.53;;;3.70;99.90;;;;;;5158363;27;20523;-75
2021/11/29 00:55:37;;;;;;;1999.90;262.10;;;3.70;99.90;;;;;;5156719;27;20444;-76
2021/11/29 00:58:06;;;;;;;1999.90;222.53;;;3.70;99.90;;;;;;5156801;27;20442;-75
2021/11/29 01:00:36;;;;;;;1811.83;697.93;;;3.70;99.90;;;;;;5137341;27;20868;-76
2021/11/29 01:03:06;;;;;;;1999.90;350.67;;;3.70;99.90;;;;;;5155187;27;20861;-75
2021/11/29 01:05:34;;;;;;;1999.90;295.67;;;3.70;99.90;;;;;;5136439;27;20449;-75
2021/11/29 01:08:04;;;;;;;1999.90;400.90;;;3.70;99.90;;;;;;5136412;27;20492;-75
2021/11/29 01:10:33;;;;;;;1999.90;237.70;;;3.70;99.90;;;;;;5154902;27;20437;-75
2021/11/29 01:13:01;;;;;;;1999.90;263.77;;;3.70;99.90;;;;;;5154921;27;20464;-75
2021/11/29 01:15:32;;;;;;;1999.90;827.73;;;3.70;99.90;;;;;;5155322;27;20938;-75
2021/11/29 01:18:07;;;;;;;1999.90;344.70;;;3.70;99.90;;;;;;5136499;27;20804;-75
2021/11/29 01:20:38;;;;;;;1999.90;533.13;;;3.70;99.90;;;;;;5154817;27;20453;-75
2021/11/29 01:23:07;;;;;;;1999.90;783.10;;;3.70;99.90;;;;;;5136504;27;20824;-75
2021/11/29 01:25:35;;;;;;;1999.90;459.70;;;3.70;99.90;;;;;;5136141;27;20533;-75
2021/11/29 01:28:03;;;;;;;1999.90;282.53;;;3.70;99.90;;;;;;5154696;27;20470;-75
2021/11/29 01:30:31;;;;;;;1999.90;759.30;;;3.70;99.90;;;;;;5154598;27;20532;-75
2021/11/29 01:33:00;;;;;;;1999.90;299.03;;;3.70;99.90;;;;;;5136319;27;20469;-75
2021/11/29 01:35:28;;;;;;;1999.90;310.33;;;3.70;99.90;;;;;;5135997;27;20432;-75
2021/11/29 01:37:58;;;;;;;1999.90;392.93;;;3.70;99.90;;;;;;5136082;27;20506;-75
2021/11/29 01:40:29;;;;;;;1999.90;528.80;;;3.70;99.90;;;;;;5136146;27;20552;-75
2021/11/29 01:42:59;;;;;;;1999.90;423.70;;;3.70;99.90;;;;;;5136500;27;20509;-75
2021/11/29 01:45:28;;;;;;;1999.90;318.50;;;3.60;99.90;;;;;;5155335;27;20526;-75
2021/11/29 01:47:56;;;;;;;1999.90;282.87;;;3.60;99.90;;;;;;5158189;27;20434;-75
2021/11/29 01:50:25;;;;;;;1999.90;180.80;;;3.60;99.90;;;;;;5139594;27;20490;-75
2021/11/29 01:52:53;;;;;;;1999.90;999.90;;;3.70;99.90;;;;;;5139453;27;20460;-75
2021/11/29 01:55:23;;;;;;;1999.90;469.43;;;3.70;99.90;;;;;;5139957;27;20484;-75
2021/11/29 01:57:51;;;;;;;1999.90;254.53;;;3.70;99.90;;;;;;5139516;27;20858;-75
2021/11/29 02:00:23;;;;;;;1999.90;276.40;;;3.70;99.90;;;;;;5139480;27;20487;-75
2021/11/29 02:02:54;;;;;;;1999.90;264.13;;;3.70;99.90;;;;;;5139390;27;20525;-78
2021/11/29 02:05:23;;;;;;;1999.90;829.10;;;3.70;99.90;;;;;;5139389;27;20517;-75
2021/11/29 02:07:51;;;;;;;1999.90;512.47;;;3.70;99.90;;;;;;5157876;27;20437;-75
2021/11/29 02:10:45;;;;;;;1999.90;652.00;;;3.70;99.90;;;;;;5158075;27;20468;-75
2021/11/29 02:13:33;;;;;;;1950.30;197.63;;;3.70;99.90;;;;;;5138240;27;20455;-75
2021/11/29 02:16:03;;;;;;;1999.90;286.20;;;3.70;99.90;;;;;;5139430;27;20456;-75
2021/11/29 02:18:34;;;;;;;1979.50;287.80;;;3.70;99.90;;;;;;5139112;27;20429;-75
2021/11/29 02:21:06;;;;;;;1999.90;290.27;;;3.70;99.90;;;;;;5157572;27;20437;-75
2021/11/29 02:23:36;;;;;;;1999.90;795.37;;;3.70;99.90;;;;;;5139016;27;20813;-75
2021/11/29 02:26:05;;;;;;;1999.90;367.07;;;3.70;99.90;;;;;;5157569;27;20439;-75
2021/11/29 02:28:35;;;;;;;1999.90;424.90;;;3.70;99.90;;;;;;5157678;27;20486;-75
2021/11/29 02:31:08;;;;;;;1999.90;327.70;;;3.70;99.90;;;;;;5138848;27;20540;-75
2021/11/29 02:33:36;;;;;;;1999.90;999.90;;;3.70;99.90;;;;;;5157547;27;20434;-74
2021/11/29 02:36:06;;;;;;;1999.90;574.17;;;3.70;99.90;;;;;;5157435;27;20440;-75
2021/11/29 02:38:35;;;;;;;1999.90;316.00;;;3.70;99.90;;;;;;5138665;27;20437;-75
2021/11/29 02:41:04;;;;;;;1999.90;365.27;;;3.70;99.90;;;;;;5157139;27;20947;-75
2021/11/29 02:43:32;;;;;;;1999.90;304.90;;;3.70;99.90;;;;;;5139393;27;20889;-75
2021/11/29 02:46:00;;;;;;;1999.90;288.93;;;3.70;99.90;;;;;;5157463;27;20435;-75
2021/11/29 02:48:40;;;;;;;1999.90;421.13;;;3.70;99.90;;;;;;5138992;27;20522;-75
2021/11/29 02:51:21;;;;;;;1999.90;423.03;;;3.70;99.90;;;;;;5155816;27;20433;-75
2021/11/29 02:53:51;;;;;;;1999.90;424.20;;;3.70;99.90;;;;;;5157337;27;20419;-75
2021/11/29 02:56:19;;;;;;;1999.90;728.73;;;3.70;99.90;;;;;;5138286;27;20441;-75
2021/11/29 02:58:48;;;;;;;1999.90;355.23;;;3.70;99.90;;;;;;5138351;27;20953;-75
2021/11/29 03:01:16;;;;;;;1999.90;480.70;;;3.70;99.90;;;;;;5138260;27;20448;-75
2021/11/29 03:03:49;;;;;;;1999.90;739.03;;;3.70;99.90;;;;;;5138223;27;20541;-75
2021/11/29 03:06:20;;;;;;;1999.90;420.90;;;3.80;99.90;;;;;;5138100;27;20518;-75
2021/11/29 03:08:48;;;;;;;1999.90;717.87;;;3.70;99.90;;;;;;5138048;27;20567;-75
2021/11/29 03:11:18;;;;;;;1999.90;714.87;;;3.70;99.90;;;;;;5156963;27;20950;-75
2021/11/29 03:13:48;;;;;;;1999.90;319.23;;;3.70;99.90;;;;;;5138403;27;20894;-75
2021/11/29 03:16:16;;;;;;;1999.90;334.87;;;3.70;99.90;;;;;;5156794;27;20464;-75
2021/11/29 03:18:45;;;;;;;1999.90;396.07;;;3.70;99.90;;;;;;5137903;27;20493;-75
2021/11/29 03:21:17;;;;;;;1999.90;310.20;;;3.70;99.90;;;;;;5137788;27;20472;-75
2021/11/29 03:23:48;;;;;;;1999.90;358.53;;;3.60;99.90;;;;;;5137885;27;20452;-75
2021/11/29 03:26:18;;;;;;;1999.90;310.93;;;3.70;99.90;;;;;;5137753;27;20488;-75
2021/11/29 03:28:49;;;;;;;1999.90;551.87;;;3.70;99.90;;;;;;5156523;27;20428;-75
2021/11/29 03:31:18;;;;;;;1999.90;333.40;;;3.70;99.90;;;;;;5137742;27;21045;-75
2021/11/29 03:33:48;;;;;;;1999.90;391.27;;;3.60;99.90;;;;;;5137903;27;20927;-75
2021/11/29 03:36:17;;;;;;;1974.07;253.37;;;3.70;99.90;;;;;;5137479;27;20957;-75
2021/11/29 03:38:46;;;;;;;1999.90;434.13;;;3.70;99.90;;;;;;5137392;27;20444;-75
2021/11/29 03:41:15;;;;;;;1999.90;862.67;;;3.70;99.90;;;;;;5137395;27;20574;-75
2021/11/29 03:43:44;;;;;;;1999.90;483.93;;;3.60;99.90;;;;;;5156345;27;20442;-75
2021/11/29 03:46:12;;;;;;;1999.90;467.93;;;3.70;99.90;;;;;;5155927;27;20523;-75
2021/11/29 03:48:41;;;;;;;1999.90;404.03;;;3.70;99.90;;;;;;5156173;27;20776;-75
2021/11/29 03:51:09;;;;;;;1924.27;463.97;;;3.60;99.90;;;;;;5137241;27;20483;-75
2021/11/29 03:53:37;;;;;;;1999.90;830.40;;;3.60;99.90;;;;;;5155997;27;20507;-75
2021/11/29 03:56:07;;;;;;;1999.90;478.17;;;3.60;99.90;;;;;;5155782;27;20839;-75
2021/11/29 03:58:36;;;;;;;1999.90;304.13;;;3.60;99.90;;;;;;5137114;27;20850;-75
2021/11/29 04:01:05;;;;;;;1999.90;548.93;;;3.60;99.90;;;;;;5155901;27;20464;-75
2021/11/29 04:03:34;;;;;;;1999.90;599.90;;;3.60;99.90;;;;;;5137325;27;20468;-75
2021/11/29 04:06:02;;;;;;;1999.90;271.17;;;3.60;99.90;;;;;;5155762;27;20871;-75
2021/11/29 04:08:31;;;;;;;1999.90;544.47;;;3.70;99.90;;;;;;5137073;27;20779;-75
2021/11/29 04:10:59;;;;;;;1999.90;291.70;;;3.60;99.90;;;;;;5136854;27;20460;-75
2021/11/29 04:13:29;;;;;;;1999.90;505.90;;;3.60;99.90;;;;;;5136903;27;20468;-75
2021/11/29 04:15:57;;;;;;;1999.90;537.70;;;3.50;99.90;;;;;;5137041;27;20807;-75
2021/11/29 04:18:25;;;;;;;1999.90;446.53;;;3.60;99.90;;;;;;5155375;27;20442;-75
2021/11/29 04:20:53;;;;;;;1999.90;585.90;;;3.60;99.90;;;;;;5137119;27;20444;-75
2021/11/29 04:23:22;;;;;;;1999.90;497.50;;;3.60;99.90;;;;;;5130846;27;20499;-75
2021/11/29 04:25:54;;;;;;;1999.90;281.27;;;3.60;99.90;;;;;;5136780;27;20447;-75
2021/11/29 04:28:22;;;;;;;1999.90;351.57;;;3.50;99.90;;;;;;5155085;27;20508;-75
2021/11/29 04:30:52;;;;;;;1999.90;732.60;;;3.50;99.90;;;;;;5155536;27;20582;-75
2021/11/29 04:33:21;;;;;;;1999.90;411.83;;;3.50;99.90;;;;;;5155388;27;21030;-75
2021/11/29 04:35:51;;;;;;;1999.90;388.70;;;3.50;99.90;;;;;;5136656;27;20531;-75
2021/11/29 04:38:19;;;;;;;1999.90;396.57;;;3.50;99.90;;;;;;5136991;27;20951;-75
2021/11/29 04:40:48;;;;;;;1999.90;847.00;;;3.50;99.90;;;;;;5155381;27;20461;-75
2021/11/29 04:43:16;;;;;;;1999.90;528.27;;;3.50;99.90;;;;;;5136731;27;20912;-75
2021/11/29 04:45:45;;;;;;;1999.90;460.47;;;3.50;99.90;;;;;;5155591;27;20497;-75
2021/11/29 04:48:15;;;;;;;1415.00;175.97;;;3.50;99.90;;;;;;5155167;27;20512;-75
2021/11/29 04:50:43;;;;;;;1999.90;406.07;;;3.50;99.90;;;;;;5155211;27;20495;-74
2021/11/29 04:53:11;;;;;;;1999.90;807.17;;;3.50;99.90;;;;;;5136888;27;20464;-74
2021/11/29 04:55:39;;;;;;;1999.90;470.63;;;3.50;99.90;;;;;;5154931;27;20943;-75
2021/11/29 04:58:08;;;;;;;1999.90;519.23;;;3.50;99.90;;;;;;5154965;27;20947;-75
2021/11/29 05:00:36;;;;;;;1999.90;282.40;;;3.50;99.90;;;;;;5155226;27;20968;-75
2021/11/29 05:03:04;;;;;;;1999.90;502.53;;;3.40;99.90;;;;;;5136615;27;20833;-74
2021/11/29 05:05:34;;;;;;;1999.90;283.77;;;3.40;99.90;;;;;;5136714;27;20448;-75
2021/11/29 05:08:22;;;;;;;1999.90;655.17;;;3.40;99.90;;;;;;5136265;27;20445;-75
2021/11/29 05:10:50;;;;;;;1902.67;236.97;;;3.40;99.90;;;;;;5136264;27;20475;-75
2021/11/29 05:13:19;;;;;;;1999.90;314.50;;;3.40;99.90;;;;;;5154909;27;20493;-75
2021/11/29 05:15:47;;;;;;;1999.90;523.20;;;3.40;99.90;;;;;;5141333;27;20443;-75
2021/11/29 05:18:16;;;;;;;1999.90;338.63;;;3.40;99.90;;;;;;5158296;27;20478;-74
2021/11/29 05:20:45;;;;;;;1999.90;575.70;;;3.40;99.90;;;;;;5161148;27;20446;-75
2021/11/29 05:23:15;;;;;;;1999.90;435.97;;;3.40;99.90;;;;;;5178604;27;20434;-74
2021/11/29 05:25:44;;;;;;;1570.60;186.20;;;3.40;99.90;;;;;;5160663;27;20467;-74
2021/11/29 05:28:12;;;;;;;1999.90;872.17;;;3.40;99.90;;;;;;5158928;27;20532;-75
2021/11/29 05:30:41;;;;;;;1999.90;342.53;;;3.40;99.90;;;;;;5155693;27;20975;-75
2021/11/29 05:33:09;;;;;;;1999.90;380.93;;;3.40;99.90;;;;;;5155355;27;20469;-75
2021/11/29 05:35:38;;;;;;;1999.90;498.07;;;3.40;99.90;;;;;;5151235;27;20482;-75
2021/11/29 05:38:08;;;;;;;1999.90;345.60;;;3.40;99.90;;;;;;5161407;27;20442;-75
2021/11/29 05:40:36;;;;;;;1999.90;368.33;;;3.40;99.90;;;;;;5141850;27;20903;-75
2021/11/29 05:43:04;;;;;;;1999.90;274.10;;;3.40;99.90;;;;;;5160017;27;20457;-75
2021/11/29 05:45:36;;;;;;;1999.90;514.67;;;3.40;99.90;;;;;;5159894;27;20436;-75
2021/11/29 05:48:05;;;;;;;1653.73;216.87;;;3.40;99.90;;;;;;5140309;27;20453;-75
2021/11/29 05:50:33;;;;;;;1999.90;513.67;;;3.40;99.90;;;;;;5158371;27;20545;-75
2021/11/29 05:53:02;;;;;;;1999.90;374.37;;;3.40;99.90;;;;;;5139642;27;20469;-75
2021/11/29 05:55:31;;;;;;;1952.27;222.10;;;3.40;99.90;;;;;;5139746;27;20821;-75
2021/11/29 05:58:00;;;;;;;1999.67;261.03;;;3.40;99.90;;;;;;5139500;27;20533;-75
2021/11/29 06:00:28;;;;;;;1999.90;308.10;;;3.40;99.90;;;;;;5139612;27;20429;-75
2021/11/29 06:02:57;;;;;;;1999.90;512.47;;;3.40;99.90;;;;;;5139706;27;21025;-75
2021/11/29 06:05:25;;;;;;;1999.90;549.67;;;3.40;99.90;;;;;;5158254;27;20936;-75
2021/11/29 06:07:53;;;;;;;1999.90;205.10;;;3.40;99.90;;;;;;5139459;27;20448;-75
2021/11/29 06:10:22;;;;;;;1922.77;200.93;;;3.40;99.90;;;;;;5157692;27;20589;-75
2021/11/29 06:12:51;;;;;;;1999.90;312.47;;;3.30;99.90;;;;;;5157928;27;20544;-75
2021/11/29 06:15:20;;;;;;;1999.90;351.57;;;3.30;99.90;;;;;;5157827;27;20526;-75
2021/11/29 06:17:48;;;;;;;1999.90;465.17;;;3.30;99.90;;;;;;5139650;27;20441;-75
2021/11/29 06:20:21;;;;;;;1999.90;617.50;;;3.30;99.90;;;;;;5139414;27;20476;-75
2021/11/29 06:22:51;;;;;;;1999.90;398.10;;;3.40;99.90;;;;;;5139051;27;21002;-75
2021/11/29 06:25:20;;;;;;;1999.90;528.70;;;3.30;99.90;;;;;;5138918;27;20449;-75
2021/11/29 06:27:49;;;;;;;1999.90;464.40;;;3.30;99.90;;;;;;5139000;27;20499;-75
2021/11/29 06:30:20;;;;;;;1999.90;263.97;;;3.20;99.90;;;;;;5157306;27;20429;-75
2021/11/29 06:32:49;;;;;;;1999.90;489.03;;;3.20;99.90;;;;;;5156849;27;20544;-75
2021/11/29 06:35:18;;;;;;;1682.63;210.13;;;3.20;99.90;;;;;;5157393;27;20436;-75
2021/11/29 06:37:48;;;;;;;1999.90;522.50;;;3.20;99.90;;;;;;5139881;27;20783;-75
2021/11/29 06:40:17;;;;;;;1999.90;320.50;;;3.20;99.90;;;;;;5138682;27;20441;-75
2021/11/29 06:42:45;;;;;;;1995.40;230.40;;;3.20;99.90;;;;;;5138547;27;20563;-75
2021/11/29 06:45:19;;;;;;;1972.73;315.73;;;3.10;99.90;;;;;;5157429;27;20783;-75
2021/11/29 06:47:48;;;;;;;1926.50;345.57;;;3.10;99.90;;;;;;5138465;27;20433;-75
2021/11/29 06:50:17;;;;;;;1959.63;312.63;;;3.10;99.90;;;;;;5157003;27;20526;-75
2021/11/29 06:52:45;;;;;;;1999.90;570.17;;;3.10;99.90;;;;;;5157301;27;20509;-75
2021/11/29 06:55:15;;;;;;;1999.90;249.33;;;3.10;99.90;;;;;;5138415;27;20473;-75
2021/11/29 06:57:44;;;;;;;1994.83;307.17;;;3.10;99.90;;;;;;5138417;27;20442;-75
2021/11/29 07:00:15;;;;;;;1999.90;240.20;;;3.10;99.90;;;;;;5138391;27;20494;-75
2021/11/29 07:02:45;;;;;;;1518.40;182.07;;;3.00;99.90;;;;;;5138398;27;20466;-75
2021/11/29 07:05:14;;;;;;;1999.90;251.57;;;3.00;99.90;;;;;;5138415;27;20449;-75
2021/11/29 07:07:44;;;;;;;1999.90;581.37;;;3.00;99.90;;;;;;5138357;27;20437;-74
2021/11/29 07:10:13;;;;;;;1999.90;648.17;;;3.00;99.90;;;;;;5157264;27;20517;-75
2021/11/29 07:12:45;;;;;;;1999.90;602.23;;;3.00;99.90;;;;;;5138037;27;20486;-75
2021/11/29 07:15:13;;;;;;;1380.90;255.73;;;3.00;99.90;;;;;;5138315;27;20482;-75
2021/11/29 07:17:42;;;;;;;859.90;131.77;;;3.00;99.90;;;;;;5137841;27;20454;-75
2021/11/29 07:20:12;;;;;;;1430.83;194.73;;;3.00;99.90;;;;;;5138658;27;20438;-75
2021/11/29 07:22:41;;;;;;;1999.90;376.23;;;3.00;99.90;;;;;;5138343;27;20569;-75
2021/11/29 07:25:09;;;;;;;1261.73;121.57;;;3.00;99.90;;;;;;5137908;27;20459;-75
2021/11/29 07:27:38;;;;;;;1999.90;555.77;;;3.00;99.90;;;;;;5137848;27;20445;-75
2021/11/29 07:30:09;;;;;;;1579.00;184.80;;;2.90;99.90;;;;;;5137742;27;20481;-75
2021/11/29 07:32:37;;;;;;;1546.70;242.43;;;2.90;99.90;;;;;;5137420;27;20483;-75
2021/11/29 07:35:07;;;;;;;1151.63;215.97;;;2.90;99.90;;;;;;5156583;27;20441;-75
2021/11/29 07:37:37;;;;;;;916.73;192.07;;;2.80;99.90;;;;;;5139039;27;20836;-75
2021/11/29 07:40:08;;;;;;;1085.37;150.17;;;2.80;99.90;;;;;;5137645;27;20501;-75
2021/11/29 07:42:36;;;;;;;559.63;110.07;;;2.80;99.90;;;;;;5156055;27;20486;-75
2021/11/29 07:45:06;;;;;;;876.43;75.00;;;2.70;99.90;;;;;;5155649;27;20434;-75
2021/11/29 07:47:34;;;;;;;921.70;117.70;;;2.70;99.90;;;;;;5137432;27;20478;-75
2021/11/29 07:50:02;;;;;;;1230.80;239.80;;;2.60;99.90;;;;;;5156317;27;20441;-75
2021/11/29 07:52:30;;;;;;;997.17;128.63;;;2.60;99.90;;;;;;5156206;27;20470;-74
2021/11/29 07:55:01;;;;;;;822.97;135.33;;;2.60;99.90;;;;;;5156052;27;20855;-75
2021/11/29 07:57:29;;;;;;;1578.97;149.97;;;2.60;99.90;;;;;;5137266;27;20464;-75
2021/11/29 07:59:57;;;;;;;1894.93;301.93;;;2.60;99.90;;;;;;5137109;27;20440;-75
2021/11/29 08:02:27;;;;;;;1382.43;251.60;;;2.60;99.90;;;;;;5137044;27;20453;-75
2021/11/29 08:04:55;;;;;;;939.63;151.57;;;2.60;99.90;;;;;;5137123;27;20958;-75
2021/11/29 08:07:23;;;;;;;877.17;118.60;;;2.60;99.90;;;;;;5155843;27;20430;-74
2021/11/29 08:09:51;;;;;;;1999.90;386.63;;;2.60;99.90;;;;;;5155642;27;20933;-75
2021/11/29 08:12:21;;;;;;;1185.23;191.20;;;2.50;99.90;;;;;;5136745;27;20988;-75
2021/11/29 08:14:53;;;;;;;1493.53;251.70;;;2.50;99.90;;;;;;5155651;27;20440;-75
2021/11/29 08:17:22;;;;;;;1890.60;217.63;;;2.60;99.90;;;;;;5155430;27;20929;-75
2021/11/29 08:19:50;;;;;;;1369.83;218.10;;;2.50;99.90;;;;;;5136845;27;20538;-75
2021/11/29 08:22:18;;;;;;;913.60;135.73;;;2.60;99.90;;;;;;5136817;27;20556;-75
2021/11/29 08:24:47;;;;;;;931.00;148.63;;;2.60;99.90;;;;;;5155745;27;20530;-75
2021/11/29 08:27:15;;;;;;;847.23;117.93;;;2.50;99.90;;;;;;5136827;27;20883;-75
2021/11/29 08:29:44;;;;;;;1354.37;205.37;;;2.50;99.90;;;;;;5136670;27;20482;-75
2021/11/29 08:32:12;;;;;;;1185.80;200.83;;;2.60;99.90;;;;;;5155206;27;20484;-75
2021/11/29 08:34:41;;;;;;;1132.03;155.57;;;2.60;99.90;;;;;;5136833;27;20447;-75
2021/11/29 08:37:11;;;;;;;1556.10;250.70;;;2.50;99.90;;;;;;5136659;27;20482;-75
2021/11/29 08:39:40;;;;;;;1358.90;194.73;;;2.60;99.90;;;;;;5155482;27;20538;-75
2021/11/29 08:42:08;;;;;;;1842.93;182.67;;;2.60;99.90;;;;;;5136600;27;20553;-75
2021/11/29 08:44:37;;;;;;;1999.90;298.30;;;2.60;99.90;;;;;;5136674;27;20440;-75
2021/11/29 08:47:06;;;;;;;1129.27;137.20;;;2.60;99.90;;;;;;5136689;27;20964;-75
2021/11/29 08:49:35;;;;;;;1274.60;127.03;;;2.60;99.90;;;;;;5136656;27;20806;-75
2021/11/29 08:52:03;;;;;;;1999.90;204.97;;;2.60;99.90;;;;;;5136564;27;20470;-75
2021/11/29 08:54:31;;;;;;;1689.23;269.67;;;2.70;99.90;;;;;;5137123;27;20804;-75
2021/11/29 08:56:59;;;;;;;1230.90;232.83;;;2.70;99.90;;;;;;5159392;27;20524;-75
2021/11/29 08:59:27;;;;;;;1382.20;220.93;;;2.80;99.90;;;;;;5159525;27;20511;-75
2021/11/29 09:01:57;;;;;;;1999.90;347.60;;;2.80;99.90;;;;;;5140510;27;20816;-75
2021/11/29 09:04:27;;;;;;;1712.43;152.17;;;2.80;99.90;;;;;;5159025;27;20868;-75
2021/11/29 09:06:55;;;;;;;1968.17;216.87;;;2.80;99.90;;;;;;5140353;27;20489;-75
2021/11/29 09:09:24;;;;;;;1999.90;471.83;;;2.90;99.90;;;;;;5159308;27;20442;-75
2021/11/29 09:11:53;;;;;;;789.43;105.03;;;2.90;99.90;;;;;;5159259;27;20460;-75
2021/11/29 09:14:21;;;;;;;1999.90;460.50;;;2.90;99.90;;;;;;5140339;27;20435;-75
2021/11/29 09:16:49;;;;;;;1999.90;337.50;;;2.90;99.90;;;;;;5158900;27;20532;-75
2021/11/29 09:19:17;;;;;;;1999.90;467.57;;;3.00;99.90;;;;;;5158816;27;20932;-75
2021/11/29 09:21:47;;;;;;;1699.77;141.30;;;3.00;99.90;;;;;;5140050;27;20633;-75
2021/11/29 09:24:15;;;;;;;1999.90;465.73;;;3.00;99.90;;;;;;5140106;27;20454;-75
2021/11/29 09:26:43;;;;;;;1999.90;482.27;;;3.10;99.90;;;;;;5140190;27;20452;-75
2021/11/29 09:29:11;;;;;;;1999.90;555.23;;;3.10;99.90;;;;;;5159326;27;20518;-75
2021/11/29 09:31:40;;;;;;;1729.63;252.13;;;3.10;99.90;;;;;;5158520;27;20469;-75
2021/11/29 09:34:08;;;;;;;1999.90;408.20;;;3.20;99.90;;;;;;5158896;27;20999;-75
2021/11/29 09:36:37;;;;;;;1868.93;297.37;;;3.20;99.90;;;;;;5139934;27;20952;-75
2021/11/29 09:39:07;;;;;;;1580.37;257.87;;;3.20;99.90;;;;;;5140049;27;20437;-75
2021/11/29 09:41:36;;;;;;;1881.07;348.50;;;3.20;99.90;;;;;;5158695;27;20492;-75
2021/11/29 09:44:05;;;;;;;1032.20;103.47;;;3.30;99.90;;;;;;5140414;27;20931;-75
2021/11/29 09:46:34;;;;;;;1999.90;389.47;;;3.30;99.90;;;;;;5158712;27;20467;-75
2021/11/29 09:49:03;;;;;;;897.57;90.00;;;3.30;99.90;;;;;;5140052;27;20449;-75
2021/11/29 09:51:34;;;;;;;1379.03;137.83;;;3.40;99.90;;;;;;5139863;27;20471;-75
2021/11/29 09:54:04;;;;;;;1999.90;394.43;;;3.40;99.90;;;;;;5139820;27;20462;-75
2021/11/29 09:56:33;;;;;;;956.07;100.47;;;3.50;99.90;;;;;;5158301;27;20437;-75
2021/11/29 09:59:02;;;;;;;1505.63;204.90;;;3.50;99.90;;;;;;5158367;27;20951;-75
2021/11/29 10:01:31;;;;;;;1639.13;262.73;;;3.50;99.90;;;;;;5140079;27;20465;-75
2021/11/29 10:04:03;;;;;;;1616.50;288.63;;;3.50;99.90;;;;;;5139649;27;20434;-75
2021/11/29 10:06:32;;;;;;;1999.90;442.70;;;3.50;99.90;;;;;;5138745;27;20505;-75
2021/11/29 10:09:03;;;;;;;909.87;99.97;;;3.60;99.90;;;;;;5158267;27;20477;-75
2021/11/29 10:11:33;;;;;;;1999.90;450.50;;;3.60;99.90;;;;;;5158594;27;20539;-75
2021/11/29 10:14:05;;;;;;;1999.90;999.90;;;3.70;99.90;;;;;;5140013;27;20471;-75
2021/11/29 10:16:40;;;;;;;1986.27;322.97;;;3.70;99.90;;;;;;5139639;27;20448;-75
2021/11/29 10:19:11;;;;;;;1709.37;288.30;;;3.70;99.90;;;;;;5157950;27;20429;-75
2021/11/29 10:21:39;;;;;;;1999.90;363.60;;;3.80;99.90;;;;;;5177109;27;20449;-75
2021/11/29 10:24:18;;;;;;;1999.90;453.20;;;3.80;99.90;;;;;;5154565;27;20446;-75
2021/11/29 10:26:52;;;;;;;1999.90;999.90;;;3.90;99.90;;;;;;5152747;27;20437;-75
2021/11/29 10:29:24;;;;;;;1999.90;999.90;;;3.90;99.90;;;;;;5166151;27;20459;-75
2021/11/29 10:31:54;;;;;;;1999.90;350.67;;;4.00;99.90;;;;;;5147578;27;20513;-75
2021/11/29 10:34:27;;;;;;;1703.53;265.50;;;4.00;99.90;;;;;;5147659;27;20547;-75
2021/11/29 10:36:57;;;;;;;1725.00;236.87;;;4.00;99.90;;;;;;5148575;27;20428;-75
2021/11/29 10:39:27;;;;;;;1999.90;392.83;;;4.10;99.90;;;;;;5170489;27;20494;-75
2021/11/29 10:41:59;;;;;;;1951.73;278.67;;;4.10;99.90;;;;;;5151892;27;20453;-75
2021/11/29 10:44:29;;;;;;;1912.53;259.83;;;4.20;99.90;;;;;;5141852;27;20477;-75
2021/11/29 10:46:59;;;;;;;1999.90;405.20;;;4.20;99.90;;;;;;5158587;27;20457;-75
2021/11/29 10:49:31;;;;;;;1999.90;999.90;;;4.20;99.90;;;;;;5157882;27;20430;-75
2021/11/29 10:52:01;;;;;;;1604.13;249.87;;;4.30;99.90;;;;;;5157740;27;20476;-75
2021/11/29 10:54:31;;;;;;;1999.90;853.33;;;4.30;99.90;;;;;;5139479;27;20873;-75
2021/11/29 10:57:01;;;;;;;1999.90;999.90;;;4.30;99.90;;;;;;5139013;27;20436;-75
2021/11/29 10:59:31;;;;;;;1999.90;521.43;;;4.40;99.90;;;;;;5138701;27;20452;-75
2021/11/29 11:02:02;;;;;;;1999.90;999.90;;;4.40;99.90;;;;;;5138608;27;20511;-75
2021/11/29 11:04:32;;;;;;;1999.90;541.27;;;4.40;99.90;;;;;;5138577;27;20445;-75
2021/11/29 11:07:02;;;;;;;1464.70;392.70;;;4.40;99.90;;;;;;5157279;27;20483;-75
2021/11/29 11:09:32;;;;;;;1999.90;387.83;;;4.50;99.90;;;;;;5138136;27;20893;-75
2021/11/29 11:12:03;;;;;;;1906.57;690.57;;;4.50;99.90;;;;;;5138614;27;21018;-75
2021/11/29 11:14:33;;;;;;;1999.90;999.90;;;4.50;99.90;;;;;;5138546;27;20479;-75
2021/11/29 11:17:23;;;;;;;1728.27;681.90;;;4.50;99.90;;;;;;5157065;27;20814;-75
2021/11/29 11:19:53;;;;;;;1999.90;660.07;;;4.60;99.90;;;;;;5156841;27;20434;-75
2021/11/29 11:22:23;;;;;;;1999.90;999.90;;;4.60;99.90;;;;;;5156814;27;20456;-75
2021/11/29 11:24:54;;;;;;;1999.90;526.13;;;4.60;99.90;;;;;;5156451;27;20417;-75
2021/11/29 11:27:26;;;;;;;1999.90;506.10;;;4.70;99.90;;;;;;5138256;27;20441;-75
2021/11/29 11:29:56;;;;;;;1999.90;999.90;;;4.70;99.90;;;;;;5137801;27;20912;-75
2021/11/29 11:32:33;;;;;;;1999.90;999.90;;;4.70;99.90;;;;;;5137701;27;21014;-75
2021/11/29 11:35:06;;;;;;;1999.90;999.90;;;4.80;99.90;;;;;;5137991;27;20468;-75
2021/11/29 11:37:37;;;;;;;1999.90;999.90;;;4.80;99.90;;;;;;5137878;27;20422;-75
2021/11/29 11:40:08;;;;;;;1999.90;999.90;;;4.80;99.90;;;;;;5156388;27;20418;-75
2021/11/29 11:42:38;;;;;;;1999.90;999.90;;;4.90;99.90;;;;;;5137483;27;20569;-75
2021/11/29 11:45:08;;;;;;;1999.90;999.90;;;4.90;99.90;;;;;;5137716;27;21023;-75
2021/11/29 11:47:37;;;;;;;1999.90;999.90;;;4.90;99.90;;;;;;5156536;27;20500;-75
2021/11/29 11:50:08;;;;;;;1999.90;999.90;;;5.00;99.90;;;;;;5137290;27;20448;-75
2021/11/29 11:52:37;;;;;;;1999.90;999.90;;;5.00;99.90;;;;;;5156287;27;20854;-75
2021/11/29 11:55:06;;;;;;;1999.90;999.90;;;5.00;99.90;;;;;;5137072;27;20475;-75
2021/11/29 11:57:57;;;;;;;1999.90;999.90;;;5.00;99.90;;;;;;5137161;27;20974;-75
2021/11/29 12:00:28;;;;;;;1999.90;999.90;;;5.10;99.90;;;;;;5137493;27;20429;-75
2021/11/29 12:03:17;;;;;;;1999.90;999.90;;;5.10;99.90;;;;;;5137368;27;20460;-75
2021/11/29 12:05:52;;;;;;;1999.90;999.90;;;5.10;99.90;;;;;;5156131;27;20442;-75
2021/11/29 12:08:41;;;;;;;1999.90;999.90;;;5.10;99.90;;;;;;5137167;27;20438;-75
2021/11/29 12:11:51;;;;;;;1999.90;999.90;;;5.10;99.90;;;;;;5137282;27;20444;-75
2021/11/29 12:14:31;;;;;;;1863.13;727.70;;;5.10;99.90;;;;;;5131773;27;20537;-75
2021/11/29 12:17:01;;;;;;;1999.90;999.90;;;5.10;99.90;;;;;;5155549;27;20422;-74
2021/11/29 12:19:39;;;;;;;1999.90;999.90;;;5.10;99.90;;;;;;5155783;27;20457;-75
2021/11/29 12:22:33;;;;;;;1999.90;999.90;;;5.10;99.90;;;;;;5156848;27;20449;-75